DUT weather

Unalaska Airport
Unalaska, Alaska, United States

Public forecast

Using degrees Fahrenheit for public forecast. Weather courtesy of forecast.io.

Current aviation weather report (METAR) for Unalaska Airport

Retrieved 2020/05/30 20:41 UTC (12 minutes ago):

PADU 302041Z AUTO 15013G17KT 10SM SCT023 OVC060 09/06 A2939 RMK AO2

Aviation forecast (TAF) for Unalaska Airport

Retrieved 2020/05/30 18:22 UTC (3 hours ago):

TAF PADU 301720Z 3018/3118 13012KT 6SM -RA BR OVC015 FM310400 12012G22KT 4SM -RA BR SCT007 OVC015